Flight Track Log - Related Links

Times and Time Zones

All times are in EST time to prevent confusion due to time zone crossing. See the N750CX flight status page for this flight to view local times or setup timezone preferences in your user account.

Time Position Orientation Groundspeed Altitude Reporting Facility
EST Latitude Longitude Course Direction KTS MPH feet Rate Location/Type
Fri 12:59:18 PM 37.7167 -97.3333 102° East 264 304 43,000  Level
Fri 01:00:18 PM 37.7000 -97.2333 90° East 296 341 10,500 -15,200 Descending
Fri 01:01:18 PM 37.7000 -97.1167 99° East 301 346 12,600 2,150 Climbing
Fri 01:02:18 PM 37.6833 -96.9833 90° East 330 380 14,800 2,300 Climbing
Fri 01:03:18 PM 37.6833 -96.8500 99° East 363 418 17,200 2,200 Climbing
Fri 01:04:18 PM 37.6667 -96.7167 90° East 382 440 19,200 2,100 Climbing
Fri 01:05:18 PM 37.6667 -96.5667 90° East 399 459 21,400 2,150 Climbing
Fri 01:06:18 PM 37.6667 -96.4167 98° East 410 472 23,500 2,050 Climbing
Fri 01:07:18 PM 37.6500 -96.2667 90° East 424 488 25,500 1,750 Climbing
Fri 01:08:18 PM 37.6500 -96.1167 97° East 435 501 27,000 1,500 Climbing
Fri 01:09:18 PM 37.6333 -95.9500 90° East 446 513 28,500 1,400 Climbing
Fri 01:10:18 PM 37.6333 -95.7833 97° East 454 522 29,800 850 Climbing
Fri 01:11:18 PM 37.6167 -95.6167 97° East 472 543 30,200 100 Climbing
Fri 01:12:18 PM 37.6000 -95.4500 90° East 486 559 30,000 -100 Descending
Fri 01:13:18 PM 37.6000 -95.2500 97° East 516 594 30,000  Level
Fri 01:14:18 PM 37.5833 -95.0667 96° East 527 606 30,000 1,050 Level
Fri 01:15:18 PM 37.5667 -94.8833 97° East 537 618 32,100 1,900 Climbing
Fri 01:16:18 PM 37.5500 -94.7000 90° East 517 595 33,800 1,500 Climbing
Fri 01:17:18 PM 37.5500 -94.5333 97° East 497 572 35,100 1,300 Climbing
Fri 01:18:18 PM 37.5333 -94.3667 97° East 497 572 36,400 1,150 Climbing
Fri 01:19:18 PM 37.5167 -94.2000 97° East 490 564 37,400 1,050 Climbing
Fri 01:20:18 PM 37.5000 -94.0333 76° East 481 554 38,500 800 Climbing
Fri 01:21:18 PM 37.5333 -93.8667 42° Northeast 462 532 39,000 550 Climbing
Fri 01:22:18 PM 37.6500 -93.7333 29° Northeast 473 544 39,600 700 Climbing
Fri 01:23:18 PM 37.7667 -93.6500 34° Northeast 473 544 40,400 800 Climbing
Fri 01:24:18 PM 37.8833 -93.5500 31° Northeast 493 567 41,200 600 Climbing
Fri 01:25:18 PM 38.0167 -93.4500 29° Northeast 498 573 41,600 450 Climbing
Fri 01:26:18 PM 38.1333 -93.3667 34° Northeast 504 580 42,100 500 Climbing
Fri 01:27:18 PM 38.2500 -93.2667 34° Northeast 504 580 42,600 450 Climbing
Fri 01:28:18 PM 38.3667 -93.1667 34° Northeast 504 580 43,000 200 Climbing
Fri 01:29:18 PM 38.4833 -93.0667 34° Northeast 504 580 43,000  Level
Fri 01:30:18 PM 38.6000 -92.9667 30° Northeast 504 580 43,000  Level
Fri 01:31:18 PM 38.7333 -92.8667 38° Northeast 514 592 43,000  Level
Fri 01:32:18 PM 38.8500 -92.7500 30° Northeast 519 597 43,000  Level
Fri 01:33:18 PM 38.9833 -92.6500 38° Northeast 525 604 43,000  Level
Fri 01:34:18 PM 39.1000 -92.5333 30° Northeast 531 611 43,000  Level
Fri 01:35:18 PM 39.2333 -92.4333 38° Northeast 531 611 43,000  Level
Fri 01:36:18 PM 39.3500 -92.3167 30° Northeast 537 618 43,000  Level
Fri 01:37:18 PM 39.4833 -92.2167 38° Northeast 537 618 43,000  Level
Fri 01:38:18 PM 39.6000 -92.1000 34° Northeast 552 635 43,000  Level
Fri 01:39:18 PM 39.7333 -91.9833 34° Northeast 552 635 43,000  Level
Fri 01:40:18 PM 39.8667 -91.8667 54° Northeast 552 635 43,000  Level
Fri 01:41:18 PM 39.9500 -91.7167 74° East 541 623 43,000  Level
Fri 01:42:08 PM 39.9833 -91.5667 90° East 562 647 43,000  Level
Fri 01:42:17 PM 39.9833 -91.5167 90° East 503 579 43,000  Level
Fri 01:43:08 PM 39.9833 -91.3667 90° East 552 635 43,000  Level
Fri 01:43:17 PM 39.9833 -91.3333 90° East 503 579 43,000  Level
Fri 01:44:08 PM 39.9833 -91.1833 90° East 535 616 43,000  Level
Fri 01:44:18 PM 39.9833 -91.1333 90° East 517 595 43,000  Level
Fri 01:45:08 PM 39.9833 -90.9833 37° Northeast 528 608 43,000  Level
Fri 01:45:14 PM 40.0000 -90.9667 90° East 523 602 43,000  Level
Fri 01:45:18 PM 40.0000 -90.9500 74° East 524 603 43,000  Level
Fri 01:46:08 PM 40.0333 -90.8000 90° East 523 602 43,000  Level
Fri 01:46:18 PM 40.0333 -90.7667 47° Northeast 516 594 43,000  Level
Fri 01:47:08 PM 40.1167 -90.6500 45° Northeast 596 686 43,000  Level
Fri 01:48:08 PM 40.2167 -90.5167 41° Northeast 551 634 43,000  Level
Fri 01:49:08 PM 40.3333 -90.3833 45° Northeast 530 610 43,000  Level
Fri 01:50:08 PM 40.4333 -90.2500 37° Northeast 525 604 43,000  Level
Fri 01:51:08 PM 40.5500 -90.1333 45° Northeast 525 604 43,000  Level
Fri 01:52:08 PM 40.6500 -90.0000 44° Northeast 525 604 43,000  Level
Fri 01:53:08 PM 40.7667 -89.8500 45° Northeast 525 604 43,000  Level
Fri 01:54:08 PM 40.8667 -89.7167 45° Northeast 525 604 43,000  Level
Fri 01:55:08 PM 40.9667 -89.5833 48° Northeast 525 604 43,000  Level
Fri 01:56:08 PM 41.0667 -89.4333 45° Northeast 532 612 43,000  Level
Fri 01:57:08 PM 41.1667 -89.3000 44° Northeast 527 606 43,000  Level
Fri 01:58:08 PM 41.2833 -89.1500 37° Northeast 522 601 43,000  Level
Fri 01:59:08 PM 41.4000 -89.0333 339° North 528 608 43,000  Level
Fri 02:00:08 PM 41.5333 -89.1000 278° West 533 613 43,000  Level
Fri 02:01:08 PM 41.5500 -89.2667 262° West 468 539 43,000  Level
Fri 02:02:08 PM 41.5333 -89.4333 270° West 452 520 43,000  Level
Fri 02:03:08 PM 41.5333 -89.5833 262° West 425 489 43,000  Level
Fri 02:04:08 PM 41.5167 -89.7333 270° West 425 489 43,000  Level
Fri 02:05:08 PM 41.5167 -89.9000 270° West 425 489 43,000  Level
Fri 02:06:08 PM 41.5167 -90.0500 270° West 425 489 43,000  Level
Fri 02:07:08 PM 41.5167 -90.2167 262° West 425 489 43,000  Level
Fri 02:08:08 PM 41.5000 -90.3667 270° West 425 489 43,000  Level
Fri 02:09:08 PM 41.5000 -90.5333 262° West 425 489 43,000  Level
Fri 02:10:08 PM 41.4833 -90.6833 270° West 425 489 43,000  Level
Fri 02:11:08 PM 41.4833 -90.8500 270° West 425 489 43,000  Level
Fri 02:12:08 PM 41.4833 -91.0000 262° West 425 489 43,000  Level
Fri 02:13:08 PM 41.4667 -91.1667 270° West 430 495 43,000  Level
Fri 02:14:08 PM 41.4667 -91.3333 262° West 430 495 43,000  Level
Fri 02:15:08 PM 41.4500 -91.4833 301° West 430 495 43,000  Level
Fri 02:16:08 PM 41.5167 -91.6333 332° Northwest 468 539 43,000  Level
Fri 02:17:08 PM 41.6333 -91.7167 360° North 489 563 43,000  Level
Fri 02:18:08 PM 41.7833 -91.7167 355° North 511 588 43,000  Level
Fri 02:19:08 PM 41.9333 -91.7333 355° North 511 588 43,000  Level
Fri 02:20:08 PM 42.0667 -91.7500 355° North 506 582 43,000  Level
Fri 02:21:08 PM 42.2167 -91.7667 54° Northeast 501 577 43,000  Level
Fri 02:22:08 PM 42.3167 -91.5833 90° East 559 643 43,000  Level
Fri 02:23:08 PM 42.3167 -91.3833 97° East 508 585 43,000  Level
Fri 02:24:08 PM 42.3000 -91.2000 90° East 508 585 43,000  Level
Fri 02:25:08 PM 42.3000 -91.0000 90° East 513 590 43,000  Level
Fri 02:26:08 PM 42.3000 -90.8167 90° East 513 590 43,000  Level
Fri 02:27:08 PM 42.3000 -90.6167 90° East 513 590 43,000  Level
Fri 02:28:08 PM 42.3000 -90.4333 83° East 518 596 43,000  Level
Fri 02:29:08 PM 42.3167 -90.2333 90° East 513 590 43,000  Level
Fri 02:30:08 PM 42.3167 -90.0333 96° East 513 590 43,000  Level
Fri 02:31:08 PM 42.3000 -89.8333 90° East 518 596 43,000  Level
Fri 02:32:08 PM 42.3000 -89.6333 90° East 518 596 43,000  Level
Fri 02:33:08 PM 42.3000 -89.4500 90° East 513 590 43,000  Level
Fri 02:34:08 PM 42.3000 -89.2500 90° East 513 590 43,000  Level
Fri 02:35:08 PM 42.3000 -89.0500 90° East 513 590 43,000  Level
Fri 02:36:08 PM 42.3000 -88.8667 90° East 508 585 43,000  Level
Fri 02:37:08 PM 42.3000 -88.6833 90° East 508 585 43,000  Level
Fri 02:38:08 PM 42.3000 -88.4833 90° East 508 585 43,000  Level
Fri 02:39:08 PM 42.3000 -88.3000 90° East 513 590 43,000  Level
Fri 02:40:08 PM 42.3000 -88.1000 58° Northeast 513 590 43,000  Level
Fri 02:41:08 PM 42.3833 -87.9167 48° Northeast 603 694 43,000  Level
Fri 02:42:08 PM 42.4833 -87.7667 44° Northeast 562 647 43,000  Level
Fri 02:43:08 PM 42.5833 -87.6333 43° Northeast 530 610 43,000  Level
Fri 02:44:08 PM 42.7000 -87.4833 48° Northeast 530 610 43,000  Level
Fri 02:45:08 PM 42.8000 -87.3333 48° Northeast 530 610 43,000  Level
Fri 02:46:08 PM 42.9000 -87.1833 48° Northeast 530 610 43,000  Level
Fri 02:47:08 PM 43.0000 -87.0333 48° Northeast 530 610 43,000  Level
Fri 02:48:08 PM 43.1000 -86.8833 48° Northeast 530 610 43,000  Level
Fri 02:49:08 PM 43.2000 -86.7333 50° Northeast 535 616 43,000  Level
Fri 02:50:08 PM 43.3000 -86.5667 43° Northeast 535 616 43,000  Level
Fri 02:51:08 PM 43.4167 -86.4167 154° Southeast 546 628 43,000  Level
Fri 02:51:14 PM 43.4094 -86.4117 48° Northeast 548 631 43,000  Level
Fri 02:52:13 PM 43.5142 -86.2531 48° Northeast 553 636 43,000  Level
Fri 02:53:13 PM 43.6200 -86.0881 48° Northeast 553 636 43,000  Level
Fri 02:53:32 PM 43.6667 -86.0167 63° Northeast 554 638 43,000  Level
Fri 02:54:32 PM 43.7333 -85.8333 127° Southeast 559 643 43,000  Level
Fri 02:55:32 PM 43.6333 -85.6500 153° Southeast 551 634 43,000  Level
Fri 02:56:32 PM 43.5167 -85.5667 153° Southeast 496 571 43,000  Level
Fri 02:57:32 PM 43.4000 -85.4833 153° Southeast 489 563 43,000  Level
Fri 02:58:32 PM 43.2833 -85.4000 144° Southeast 474 545 43,000  Level
Fri 02:59:32 PM 43.1833 -85.3000 180° South 469 540 43,000  Level
Fri 03:00:32 PM 43.0667 -85.3000 221° Southwest 420 483 43,000  Level
Fri 03:01:32 PM 42.9833 -85.4000 226° Southwest 402 463 43,000  Level
Fri 03:02:32 PM 42.9000 -85.5167 232° Southwest 402 463 43,000  Level
Fri 03:03:32 PM 42.8333 -85.6333 228° Southwest 397 457 43,000  Level
Fri 03:04:32 PM 42.7667 -85.7333 221° Southwest 397 457 43,000  Level
Fri 03:05:32 PM 42.6833 -85.8333 232° Southwest 397 457 43,000  Level
Fri 03:06:32 PM 42.6167 -85.9500 216° Southwest 397 457 43,000  Level
Fri 03:07:32 PM 42.5333 -86.0333 232° Southwest 392 451 43,000  Level
Fri 03:08:32 PM 42.4667 -86.1500 222° Southwest 392 451 43,000  Level
Fri 03:09:32 PM 42.3833 -86.2500 228° Southwest 392 451 43,000  Level
Fri 03:10:32 PM 42.3167 -86.3500 222° Southwest 392 451 43,000  Level
Fri 03:11:32 PM 42.2333 -86.4500 228° Southwest 385 443 43,000  Level
Fri 03:12:32 PM 42.1667 -86.5500 222° Southwest 377 434 43,000  Level
Fri 03:13:32 PM 42.0833 -86.6500 228° Southwest 377 434 43,000  Level
Fri 03:14:32 PM 42.0167 -86.7500 222° Southwest 377 434 43,000  Level
Fri 03:15:32 PM 41.9333 -86.8500 228° Southwest 377 434 43,000  Level
Fri 03:16:32 PM 41.8667 -86.9500 217° Southwest 377 434 43,000  Level
Fri 03:17:32 PM 41.7833 -87.0333 200° South 377 434 43,000  Level
Fri 03:18:32 PM 41.6833 -87.0833 174° South 382 440 43,000  Level
Fri 03:19:32 PM 41.5667 -87.0667 180° South 415 478 43,000  Level
Fri 03:20:32 PM 41.4500 -87.0667 180° South 421 484 43,000  Level
Fri 03:21:32 PM 41.3333 -87.0667 186° South 416 479 43,000  Level
Fri 03:22:32 PM 41.2167 -87.0833 180° South 416 479 43,000  Level
Fri 03:23:32 PM 41.1000 -87.0833 180° South 416 479 43,000  Level
Fri 03:24:32 PM 40.9833 -87.0833 180° South 416 479 43,000  Level
Fri 03:25:32 PM 40.8833 -87.0833 180° South 416 479 43,000  Level
Fri 03:26:32 PM 40.7667 -87.0833 186° South 416 479 43,000  Level
Fri 03:27:32 PM 40.6500 -87.1000 180° South 408 470 43,000  Level
Fri 03:28:32 PM 40.5333 -87.1000 180° South 403 464 43,000  Level
Fri 03:32:11 PM 40.1189 -87.0997 182° South 404 465 43,000  Level
Fri 03:33:11 PM 40.0061 -87.1047 180° South 415 478 43,000  Level
Fri 03:34:11 PM 39.8894 -87.1044 182° South 415 478 43,000  Level
Fri 03:35:11 PM 39.7725 -87.1092 180° South 421 484 43,000  Level
Fri 03:36:11 PM 39.6578 -87.1089 181° South 421 484 43,000  Level
Fri 03:37:11 PM 39.5369 -87.1108 181° South 433 498 43,000  Level
Fri 03:38:11 PM 39.4117 -87.1128 182° South 445 512 43,000  Level
Fri 03:39:11 PM 39.2906 -87.1175 181° South 445 512 43,000  Level
Fri 03:40:11 PM 39.1653 -87.1192 180° South 445 512 43,000  Level
Fri 03:41:11 PM 39.0653 -87.1194 185° South 432 497 43,000  Level
Fri 03:42:11 PM 38.9419 -87.1322 213° Southwest 432 497 43,000  Level
Fri 03:43:11 PM 38.8433 -87.2153 245° Southwest 412 474 43,000  Level
Fri 03:44:11 PM 38.7931 -87.3514 243° Southwest 425 489 43,000  Level
Fri 03:44:35 PM 38.7667 -87.4167 276° West 432 497 43,000  Level
Fri 03:45:35 PM 38.7833 -87.6167 270° West 480 552 43,000  Level
Fri 03:46:35 PM 38.7833 -87.7667 278° West 468 539 43,000  Level
Fri 03:47:35 PM 38.8000 -87.9167 270° West 455 524 43,000  Level
Fri 03:48:35 PM 38.8000 -88.0833 303° West 455 524 43,000  Level
Fri 03:49:35 PM 38.8667 -88.2167 337° Northwest 450 518 43,000  Level
Fri 03:50:35 PM 39.0167 -88.3000 North 445 512 43,000  Level
Fri 03:51:35 PM 39.1833 -88.2833 360° North 485 558 43,000  Level
Fri 03:52:35 PM 39.3333 -88.2833 360° North 516 594 43,000  Level
Fri 03:53:35 PM 39.5000 -88.2833 355° North 538 619 43,000  Level
Fri 03:54:35 PM 39.6500 -88.3000 360° North 543 625 43,000  Level
Fri 03:54:50 PM 39.6833 -88.3000 360° North 543 625 43,000  Level
Fri 03:55:35 PM 39.8000 -88.3000 360° North 543 625 43,000  Level
Fri 03:55:50 PM 39.8167 -88.3000 360° North 543 625 43,000  Level
Fri 03:56:35 PM 39.9500 -88.3000 360° North 548 631 43,000  Level
Fri 03:56:50 PM 39.9667 -88.3000 356° North 545 627 43,000  Level
Fri 03:57:50 PM 40.1500 -88.3167 350° North 626 720 43,000  Level
Fri 03:58:51 PM 40.3000 -88.3500 355° North 577 664 43,000  Level
Fri 03:59:51 PM 40.4500 -88.3667 360° North 565 650 43,000  Level
Fri 04:00:51 PM 40.6000 -88.3667 360° North 555 639 43,000  Level
Fri 04:01:50 PM 40.7500 -88.3667 306° West 555 639 43,000  Level
Fri 04:02:50 PM 40.8333 -88.5167 234° Southwest 516 594 43,000  Level
Fri 04:03:50 PM 40.7500 -88.6667 212° Southwest 492 566 43,000  Level
Fri 04:04:50 PM 40.6500 -88.7500 217° Southwest 478 550 43,000  Level
Fri 04:05:50 PM 40.5500 -88.8500 222° Southwest 453 521 43,000  Level
Fri 04:06:50 PM 40.4667 -88.9500 224° Southwest 439 505 43,000  Level
Fri 04:07:30 PM 40.4000 -89.0333 217° Southwest 439 505 43,000  Level
Fri 04:07:50 PM 40.3667 -89.0667 232° Southwest 439 505 43,000  Level
Fri 04:08:30 PM 40.3167 -89.1500 217° Southwest 439 505 43,000  Level
Fri 04:09:30 PM 40.2167 -89.2500 227° Southwest 444 511 43,000  Level
Fri 04:10:30 PM 40.1333 -89.3667 217° Southwest 449 517 43,000  Level
Fri 04:11:30 PM 40.0333 -89.4667 227° Southwest 455 524 43,000  Level
Fri 04:12:30 PM 39.9500 -89.5833 218° Southwest 455 524 43,000  Level
Fri 04:13:30 PM 39.8500 -89.6833 227° Southwest 455 524 43,000  Level
Fri 04:14:30 PM 39.7667 -89.8000 223° Southwest 455 524 43,000  Level
Fri 04:15:30 PM 39.6833 -89.9000 218° Southwest 450 518 43,000  Level
Fri 04:16:30 PM 39.5833 -90.0000 191° South 450 518 43,000  Level
Fri 04:17:30 PM 39.4500 -90.0333 180° South 437 503 43,000 1,000 Level
Fri 04:18:30 PM 39.3333 -90.0333 186° South 447 514 45,000 450 Climbing
Fri 04:19:30 PM 39.2000 -90.0500 180° South 453 521 43,900  Descending
Fri 04:20:30 PM 39.0833 -90.0500 186° South 439 505 45,000 550 Climbing
Fri 04:21:30 PM 38.9667 -90.0667 198° South 434 499 45,000  Level
Fri 04:22:30 PM 38.8500 -90.1167 237° Southwest 422 486 45,000  Level
Fri 04:23:30 PM 38.7833 -90.2500 234° Southwest 416 479 45,000  Level
Fri 04:24:30 PM 38.7167 -90.3667 240° Southwest 422 486 45,000  Level
Fri 04:25:30 PM 38.6500 -90.5167 234° Southwest 438 504 45,000  Level
Fri 04:26:30 PM 38.5833 -90.6333 231° Southwest 444 511 45,000  Level
Fri 04:27:30 PM 38.5000 -90.7667 234° Southwest 444 511 45,000  Level
Fri 04:28:30 PM 38.4333 -90.8833 238° Southwest 444 511 45,000  Level
Fri 04:29:30 PM 38.3667 -91.0167 238° Southwest 444 511 45,000  Level
Fri 04:30:30 PM 38.3000 -91.1500 232° Southwest 444 511 45,000  Level
Fri 04:31:30 PM 38.2167 -91.2833 234° Southwest 444 511 45,000  Level
Fri 04:32:30 PM 38.1500 -91.4000 238° Southwest 439 505 45,000  Level
Fri 04:33:30 PM 38.0833 -91.5333 234° Southwest 439 505 45,000  Level
Fri 04:34:30 PM 38.0167 -91.6500 232° Southwest 444 511 45,000  Level
Fri 04:35:30 PM 37.9333 -91.7833 238° Southwest 455 524 45,000  Level
Fri 04:36:30 PM 37.8667 -91.9167 238° Southwest 455 524 45,000  Level
Fri 04:37:30 PM 37.8000 -92.0500 247° West 460 529 45,000 -1,000 Level
Fri 04:38:30 PM 37.7500 -92.2000 270° West 448 516 43,000 -1,000 Descending
Fri 04:39:30 PM 37.7500 -92.3667 263° West 448 516 43,000  Level
Fri 04:40:30 PM 37.7333 -92.5333 262° West 459 528 43,000 694 Level
Fri 04:41:31 PM 37.7167 -92.6833 270° West 464 534 44,400 200 Climbing
Fri 04:42:30 PM 37.7167 -92.8500 263° West 464 534 43,400 -706 Descending
Fri 04:43:30 PM 37.7000 -93.0167 263° West 464 534 43,000 -200 Descending
Fri 04:44:30 PM 37.6833 -93.1833 262° West 464 534 43,000  Level
Fri 04:45:30 PM 37.6667 -93.3333 263° West 464 534 43,000  Level
Fri 04:46:30 PM 37.6500 -93.5000 263° West 469 540 43,000  Level
Fri 04:47:30 PM 37.6333 -93.6667 263° West 469 540 43,000  Level
Fri 04:48:30 PM 37.6167 -93.8333 256° West 474 545 43,000  Level
Fri 04:49:30 PM 37.5833 -94.0000 262° West 474 545 43,000  Level
Fri 04:50:30 PM 37.5667 -94.1500 263° West 474 545 43,000  Level
Fri 04:51:30 PM 37.5500 -94.3167 263° West 468 539 43,000  Level
Fri 04:52:30 PM 37.5333 -94.4833 263° West 478 550 43,000 -545 Level
Fri 04:53:31 PM 37.5167 -94.6500 263° West 483 556 41,900 -1,500 Descending
Fri 04:54:30 PM 37.5000 -94.8167 257° West 483 556 40,000 -2,471 Descending
Fri 04:55:30 PM 37.4667 -95.0000 263° West 493 567 37,000 -1,500 Descending
Fri 04:56:30 PM 37.4500 -95.1667 264° West 503 579 37,000 -400 Level
Fri 04:57:30 PM 37.4333 -95.3500 264° West 508 585 36,200 -1,350 Descending
Fri 04:58:30 PM 37.4167 -95.5333 257° West 513 590 34,300 3,400 Descending
Fri 04:59:30 PM 37.3833 -95.7167 263° West 518 596 43,000 -500 Climbing
Fri 05:00:30 PM 37.3667 -95.8833 277° West 518 596 33,300 -7,200 Descending
Fri 05:01:30 PM 37.3833 -96.0667 284° West 518 596 28,600 -4,050 Descending
Fri 05:02:30 PM 37.4167 -96.2333 278° West 493 567 25,200 7,200 Descending
Fri 05:03:30 PM 37.4333 -96.3833 286° West 476 548 43,000 8,900 Climbing
Fri 05:04:30 PM 37.4667 -96.5333 288° West 440 506 43,000 -9,650 Level
Fri 05:05:30 PM 37.5000 -96.6667 279° West 427 491 23,700 -11,306 Descending
Fri 05:06:31 PM 37.5167 -96.8000 286° West 422 486 20,200 -3,600 Descending
Fri 05:07:30 PM 37.5500 -96.9500 261° West 422 486 16,500 -2,521 Descending
Fri 05:08:30 PM 37.5333 -97.0833 270° West 394 453 15,200 -2,300 Descending
Fri 05:09:30 PM 37.5333 -97.2000 243° Southwest 352 405 11,900 -3,150 Descending
Fri 05:10:30 PM 37.5000 -97.2833 256° West 307 353 8,900 -2,450 Descending
Fri 05:11:30 PM 37.4833 -97.3667 256° West 282 325 7,000 -2,650 Descending
Fri 05:12:30 PM 37.4667 -97.4500 287° West 264 304 3,600 -2,050 Descending
Fri 05:13:30 PM 37.4833 -97.5167 28° Northeast 220 253 2,900 -350 Descending
Fri 05:14:30 PM 37.5333 -97.4833 22° Northeast 102 117 2,900 -149 Level
Fri 05:15:31 PM 37.5667 -97.4667 15° North 113 130 2,600 -400 Descending
Fri 05:16:30 PM 37.6167 -97.4500 39° Northeast 126 145 2,100 -605 Descending
Fri 05:17:30 PM 37.6333 -97.4333 21° North 121 139 1,400 -450 Descending
Fri 05:18:30 PM 37.6667 -97.4167 21° North 121 139 1,200 -200 Descending

Login

Don't have an account? Register now (free) for customized features, flight alerts, and more!